Oscoda, MI

6:37 PM EDT on April 01, 2015 (GMT -0400)
Oscoda-Wurtsmith | | Change Station
CLOSE
Current Station
Airport
Location: Oscoda,
Elevation: 633 ft
Nearby Weather Stations

Elev 633 ft 44.45 °N, 83.39 °W | Updated 3 minutes ago

Mostly Cloudy
Mostly Cloudy
38 °F
Feels Like 33 °F
N
7
Wind Variable Wind from SE

Today
High -- | Low -- °F
--% Chance of Precip.
Yesterday
High -- | Low -- °F
Precip. -- in
7:15 AM 8:01 PM
Waxing Gibbous, 94% visible
Pressure 29.99 in
Visibility 7.0 miles
Clouds Mostly Cloudy 11000 ft
Windchill 33 °F
Dew Point 32 °F
Humidity 79%
Rainfall 0.00 in
Snow Depth Not available.
UV 0 out of 12
Pollen 3.30 out of 12
Air Quality Not available.
Flu Activity Not available.
METAR KOSC 012234Z AUTO 13006KT 7SM BKN110 03/00 A2999 RMK AO2 T00330000

More Conditions Fewer Conditions

Pressure 29.99 in
Visibility 7.0 miles
Clouds Mostly Cloudy 11000 ft
Windchill 33 °F
Dew Point 32 °F
Humidity 79%
Rainfall 0.00 in
Snow Depth Not available.
UV 0 out of 12
Pollen 3.30 out of 12
Air Quality Not available.
Flu Activity Not available.
METAR KOSC 012234Z AUTO 13006KT 7SM BKN110 03/00 A2999 RMK AO2 T00330000

More Conditions Fewer Conditions

Nowcast | as of 6:00 PM EDT on April 1, 2015

At 7 PM...partly cloudy. Temperature 43. Southeast winds 8 mph. At 9 PM...partly cloudy. Temperature 42. Southeast winds 7 mph. At 11 PM...partly cloudy. Temperature 41. Southeast winds 7 mph. At 1 am...partly cloudy. Temperature 40. South winds 9 mph.

×

10-Day Weather Forecast

Almanac

Astronomy

Apr. 01, 2015 Rise Set
Actual Time
Civil Twilight
Nautical Twilight
Astronomical Twilight
Moon
Length of Visible Light
Length of Day
Tomorrow will be .
, % of the Moon is Illuminated

Today's Extremes

State Highs State Lows

Community

WunderPhotos

Upload Photos

1,810,096 photos uploaded!

WunderBlogs® & News

Nearby

Air Quality

  Air Quality AQ Index Pollutant
Not available.

Snow Depth

Station Depth Elevation

Earthquake Activity

City Distance Mag. Time & Date
Minimum magnitude displayed is 2.5.

Coastal Water Temperatures

Place Temperature

Stations

Nearby Weather Stations

Station Location Temp. Windchill Dew Point Humidity Wind Precip. Elev Updated Type